createdAt,value
2023-04-08T00:00:09.499Z,9.70
2023-04-08T00:02:36.381Z,9.70
2023-04-08T00:05:03.398Z,9.70
2023-04-08T00:07:30.062Z,9.70
2023-04-08T00:09:56.816Z,9.70
2023-04-08T00:12:23.453Z,9.70
2023-04-08T00:14:50.073Z,9.60
2023-04-08T00:17:16.923Z,9.60
2023-04-08T00:19:44.557Z,9.60
2023-04-08T00:22:11.631Z,9.60
2023-04-08T00:24:38.330Z,9.60
2023-04-08T00:27:04.942Z,9.60
2023-04-08T00:29:32.180Z,9.60
2023-04-08T00:31:58.795Z,9.60
2023-04-08T00:34:25.457Z,9.60
2023-04-08T00:36:52.091Z,9.60
2023-04-08T00:39:18.717Z,9.60
2023-04-08T00:41:45.677Z,9.50
2023-04-08T00:44:12.275Z,9.60
2023-04-08T00:46:40.560Z,9.60
2023-04-08T00:49:07.481Z,9.60
2023-04-08T00:51:36.494Z,9.60
2023-04-08T00:54:04.915Z,9.60
2023-04-08T00:56:33.007Z,9.50
2023-04-08T00:59:00.675Z,9.50
2023-04-08T01:01:39.478Z,9.50
2023-04-08T01:04:06.268Z,9.40
2023-04-08T01:06:42.787Z,9.50
2023-04-08T01:09:11.452Z,9.50
2023-04-08T01:11:43.441Z,9.50
2023-04-08T01:14:12.901Z,9.50
2023-04-08T01:16:42.287Z,9.50
2023-04-08T01:19:10.660Z,9.50
2023-04-08T01:21:38.756Z,9.40
2023-04-08T01:24:26.173Z,9.40
2023-04-08T01:26:53.542Z,9.40
2023-04-08T01:29:20.798Z,9.50
2023-04-08T01:31:48.116Z,9.40
2023-04-08T01:34:16.908Z,9.40
2023-04-08T01:36:46.276Z,9.40
2023-04-08T01:39:15.024Z,9.40
2023-04-08T01:41:42.075Z,9.40
2023-04-08T01:44:10.686Z,9.30
2023-04-08T01:46:39.152Z,9.30
2023-04-08T01:49:07.193Z,9.20
2023-04-08T01:51:34.770Z,9.20
2023-04-08T01:54:01.498Z,9.20
2023-04-08T01:56:30.566Z,9.10
2023-04-08T01:59:00.652Z,9.10
2023-04-08T02:01:29.332Z,9.10
2023-04-08T02:03:58.556Z,9.00
2023-04-08T02:06:27.764Z,9.00
2023-04-08T02:08:55.240Z,8.90
2023-04-08T02:11:21.968Z,8.90
2023-04-08T02:13:49.125Z,9.00
2023-04-08T02:16:22.287Z,8.90
2023-04-08T02:18:57.492Z,8.90
2023-04-08T02:21:32.998Z,8.90
2023-04-08T02:24:03.984Z,8.90
2023-04-08T02:26:33.764Z,8.90
2023-04-08T02:29:02.260Z,8.90
2023-04-08T02:31:29.005Z,8.80
2023-04-08T02:33:56.846Z,8.80
2023-04-08T02:36:23.669Z,8.70
2023-04-08T02:38:50.618Z,8.80
2023-04-08T02:41:17.428Z,8.60
2023-04-08T02:43:44.072Z,8.60
2023-04-08T02:46:11.664Z,8.40
2023-04-08T02:48:38.336Z,8.30
2023-04-08T02:51:05.231Z,8.20
2023-04-08T02:53:31.856Z,8.10
2023-04-08T02:55:58.478Z,8.10
2023-04-08T02:58:25.359Z,8.00
2023-04-08T03:00:52.144Z,7.90
2023-04-08T03:03:18.862Z,7.80
2023-04-08T03:05:45.528Z,7.80
2023-04-08T03:08:12.157Z,7.70
2023-04-08T03:10:38.764Z,7.60
2023-04-08T03:13:05.452Z,7.50
2023-04-08T03:15:32.075Z,7.50
2023-04-08T03:17:58.758Z,7.40
2023-04-08T03:20:25.530Z,7.30
2023-04-08T03:22:52.153Z,7.20
2023-04-08T03:25:18.828Z,7.10
2023-04-08T03:27:45.416Z,7.10
2023-04-08T03:30:12.325Z,7.00
2023-04-08T03:32:39.040Z,6.90
2023-04-08T03:35:06.605Z,6.80
2023-04-08T03:37:33.247Z,6.70
2023-04-08T03:39:59.948Z,6.70
2023-04-08T03:42:27.174Z,6.60
2023-04-08T03:44:53.778Z,6.50
2023-04-08T03:47:20.400Z,6.40
2023-04-08T03:49:47.002Z,6.40
2023-04-08T03:52:13.617Z,6.30
2023-04-08T03:54:40.210Z,6.20
2023-04-08T03:57:06.821Z,6.20
2023-04-08T03:59:34.004Z,6.20
2023-04-08T04:02:00.884Z,6.10
2023-04-08T04:04:27.670Z,6.00
2023-04-08T04:06:54.503Z,6.00
2023-04-08T04:09:21.070Z,6.00
2023-04-08T04:11:47.701Z,5.90
2023-04-08T04:14:14.303Z,5.90
2023-04-08T04:16:41.027Z,5.80
2023-04-08T04:19:07.624Z,5.80
2023-04-08T04:21:34.241Z,5.70
2023-04-08T04:24:00.899Z,5.60
2023-04-08T04:26:27.526Z,5.50
2023-04-08T04:28:54.150Z,5.30
2023-04-08T04:31:22.720Z,5.20
2023-04-08T04:33:49.584Z,5.20
2023-04-08T04:36:16.414Z,5.20
2023-04-08T04:38:43.401Z,5.10
2023-04-08T04:41:10.980Z,6.40
2023-04-08T04:43:37.632Z,5.10
2023-04-08T04:46:07.191Z,5.10
2023-04-08T04:48:34.386Z,5.00
2023-04-08T04:51:03.144Z,5.00
2023-04-08T04:53:30.699Z,5.00
2023-04-08T04:55:57.366Z,5.00
2023-04-08T04:58:23.979Z,5.00
2023-04-08T05:00:50.725Z,5.00
2023-04-08T05:03:17.479Z,5.00
2023-04-08T05:05:44.304Z,5.00
2023-04-08T05:08:11.283Z,5.00
2023-04-08T05:10:40.424Z,5.00
2023-04-08T05:13:07.035Z,5.00
2023-04-08T05:15:33.652Z,4.90
2023-04-08T05:18:00.624Z,4.90
2023-04-08T05:20:27.360Z,4.90
2023-04-08T05:22:53.979Z,4.90
2023-04-08T05:25:20.824Z,4.80
2023-04-08T05:27:47.524Z,4.70
2023-04-08T05:30:14.187Z,4.70
2023-04-08T05:32:41.091Z,4.70
2023-04-08T05:35:09.448Z,4.70
2023-04-08T05:37:36.255Z,4.70
2023-04-08T05:40:03.176Z,4.70
2023-04-08T05:42:29.899Z,4.80
2023-04-08T05:44:56.501Z,4.80
2023-04-08T05:47:23.131Z,4.90
2023-04-08T05:49:51.182Z,5.00
2023-04-08T05:52:17.974Z,5.00
2023-04-08T05:54:44.719Z,5.00
2023-04-08T05:57:11.799Z,5.10
2023-04-08T05:59:38.425Z,5.10
2023-04-08T06:02:05.451Z,5.10
2023-04-08T06:04:32.319Z,5.10
2023-04-08T06:06:59.852Z,5.20
2023-04-08T06:09:26.863Z,5.20
2023-04-08T06:11:53.480Z,5.20
2023-04-08T06:14:20.830Z,5.30
2023-04-08T06:16:47.619Z,5.40
2023-04-08T06:19:14.273Z,5.40
2023-04-08T06:21:40.937Z,5.60
2023-04-08T06:24:07.547Z,5.60
2023-04-08T06:26:34.224Z,5.70
2023-04-08T06:29:01.928Z,5.70
2023-04-08T06:31:28.636Z,5.80
2023-04-08T06:33:55.909Z,5.80
2023-04-08T06:36:22.521Z,5.90
2023-04-08T06:38:49.375Z,6.00
2023-04-08T06:41:16.199Z,6.10
2023-04-08T06:43:42.827Z,6.30
2023-04-08T06:46:09.484Z,6.40
2023-04-08T06:48:37.737Z,6.60
2023-04-08T06:51:04.502Z,6.70
2023-04-08T06:53:32.694Z,6.90
2023-04-08T06:55:59.910Z,7.10
2023-04-08T06:58:27.192Z,7.20
2023-04-08T07:00:55.686Z,7.40
2023-04-08T07:03:23.124Z,7.60
2023-04-08T07:05:49.864Z,7.80
2023-04-08T07:08:16.607Z,8.10
2023-04-08T07:10:43.325Z,8.20
2023-04-08T07:13:10.502Z,8.40
2023-04-08T07:15:37.523Z,8.60
2023-04-08T07:18:04.722Z,8.70
2023-04-08T07:20:32.300Z,8.80
2023-04-08T07:22:59.074Z,9.00
2023-04-08T07:25:25.734Z,9.10
2023-04-08T07:27:52.947Z,9.30
2023-04-08T07:30:19.860Z,9.40
2023-04-08T07:32:46.752Z,9.60
2023-04-08T07:35:13.696Z,9.70
2023-04-08T07:37:40.571Z,9.80
2023-04-08T07:40:07.942Z,10.00
2023-04-08T07:42:34.575Z,10.10
2023-04-08T07:45:01.187Z,10.30
2023-04-08T07:47:27.875Z,10.50
2023-04-08T07:49:54.607Z,10.70
2023-04-08T07:52:21.535Z,11.00
2023-04-08T07:54:48.214Z,11.30
2023-04-08T07:57:15.201Z,11.60
2023-04-08T07:59:42.101Z,12.20
2023-04-08T08:02:08.864Z,12.70
2023-04-08T08:04:35.677Z,12.80
2023-04-08T08:07:02.370Z,12.90
2023-04-08T08:09:31.013Z,13.20
2023-04-08T08:11:58.733Z,13.70
2023-04-08T08:14:26.735Z,14.30
2023-04-08T08:16:54.330Z,14.60
2023-04-08T08:19:21.475Z,14.60
2023-04-08T08:21:48.706Z,14.60
2023-04-08T08:24:16.492Z,14.50
2023-04-08T08:26:45.089Z,14.50
2023-04-08T08:29:11.716Z,14.40
2023-04-08T08:31:38.326Z,14.30
2023-04-08T08:34:05.038Z,14.20
2023-04-08T08:36:33.477Z,14.20
2023-04-08T08:39:01.929Z,14.20
2023-04-08T08:41:34.025Z,14.20
2023-04-08T08:44:01.037Z,13.90
2023-04-08T08:46:27.693Z,13.90
2023-04-08T08:48:54.410Z,13.80
2023-04-08T08:51:21.631Z,13.80
2023-04-08T08:53:48.277Z,13.80
2023-04-08T08:56:17.837Z,13.70
2023-04-08T08:58:45.654Z,13.60
2023-04-08T09:01:32.440Z,13.60
2023-04-08T09:04:08.355Z,13.50
2023-04-08T09:06:36.353Z,13.40
2023-04-08T09:09:05.935Z,13.30
2023-04-08T09:11:33.319Z,13.30
2023-04-08T09:14:00.118Z,13.30
2023-04-08T09:16:27.653Z,13.30
2023-04-08T09:18:54.435Z,13.30
2023-04-08T09:21:24.645Z,13.30
2023-04-08T09:23:52.635Z,13.40
2023-04-08T09:26:23.867Z,13.40
2023-04-08T09:29:10.949Z,13.50
2023-04-08T09:31:47.228Z,13.70
2023-04-08T09:34:17.069Z,13.90
2023-04-08T09:36:47.432Z,14.00
2023-04-08T09:39:14.052Z,14.10
2023-04-08T09:41:41.463Z,14.10
2023-04-08T09:44:09.478Z,14.10
2023-04-08T09:46:53.148Z,14.00
2023-04-08T09:49:26.769Z,13.90
2023-04-08T09:52:08.515Z,13.80
2023-04-08T09:54:49.196Z,13.90
2023-04-08T09:57:41.611Z,14.10
2023-04-08T10:00:14.039Z,14.20
2023-04-08T10:03:10.900Z,14.20
2023-04-08T10:05:40.662Z,14.30
2023-04-08T10:08:08.005Z,14.50
2023-04-08T10:10:40.044Z,14.70
2023-04-08T10:13:09.975Z,14.80
2023-04-08T10:15:38.407Z,14.90
2023-04-08T10:18:08.032Z,15.10
2023-04-08T10:20:34.905Z,15.40
2023-04-08T10:23:09.304Z,15.70
2023-04-08T10:25:37.378Z,16.30
2023-04-08T10:28:24.816Z,15.80
2023-04-08T10:30:58.179Z,17.50
2023-04-08T10:33:30.787Z,17.70
2023-04-08T10:36:10.104Z,17.80
2023-04-08T10:38:37.393Z,17.80
2023-04-08T10:41:04.217Z,17.50
2023-04-08T10:43:34.907Z,17.40
2023-04-08T10:46:01.947Z,17.40
2023-04-08T10:48:32.004Z,17.20
2023-04-08T10:51:00.637Z,17.10
2023-04-08T10:53:35.526Z,16.80
2023-04-08T10:56:09.317Z,16.60
2023-04-08T10:58:36.966Z,16.50
2023-04-08T11:01:07.628Z,16.40
2023-04-08T11:03:36.325Z,16.40
2023-04-08T11:06:03.720Z,16.40
2023-04-08T11:08:32.428Z,16.30
2023-04-08T11:11:02.075Z,16.20
2023-04-08T11:13:29.302Z,16.20
2023-04-08T11:16:00.697Z,16.20
2023-04-08T11:18:28.570Z,16.10
2023-04-08T11:20:55.908Z,16.00
2023-04-08T11:23:26.007Z,16.60
2023-04-08T11:25:52.811Z,16.00
2023-04-08T11:28:20.708Z,16.10
2023-04-08T11:30:48.247Z,16.10
2023-04-08T11:33:15.001Z,16.10
2023-04-08T11:35:42.530Z,16.00
2023-04-08T11:38:10.324Z,16.00
2023-04-08T11:40:37.567Z,15.90
2023-04-08T11:43:11.211Z,16.10
2023-04-08T11:45:39.788Z,16.30
2023-04-08T11:48:14.377Z,16.60
2023-04-08T11:50:42.449Z,16.80
2023-04-08T11:53:21.562Z,16.90
2023-04-08T11:55:48.894Z,17.20
2023-04-08T11:58:15.833Z,17.60
2023-04-08T12:00:43.574Z,17.80
2023-04-08T12:03:11.280Z,17.90
2023-04-08T12:05:38.033Z,17.90
2023-04-08T12:08:04.898Z,18.00
2023-04-08T12:10:31.608Z,18.10
2023-04-08T12:12:58.222Z,18.00
2023-04-08T12:15:24.856Z,17.90
2023-04-08T12:17:51.543Z,18.00
2023-04-08T12:20:18.577Z,18.10
2023-04-08T12:22:45.531Z,18.20
2023-04-08T12:25:12.155Z,18.20
2023-04-08T12:27:38.770Z,18.10
2023-04-08T12:30:05.822Z,18.10
2023-04-08T12:32:33.594Z,17.90
2023-04-08T12:35:00.406Z,17.90
2023-04-08T12:37:27.794Z,18.00
2023-04-08T12:39:54.396Z,18.30
2023-04-08T12:42:21.042Z,18.40
2023-04-08T12:44:47.663Z,18.50
2023-04-08T12:47:14.298Z,18.80
2023-04-08T12:52:10.620Z,19.30
2023-04-08T12:54:38.939Z,19.40
2023-04-08T12:57:07.878Z,19.90
2023-04-08T12:59:34.572Z,20.30
2023-04-08T13:02:01.203Z,20.60
2023-04-08T13:04:27.887Z,21.00
2023-04-08T13:06:55.510Z,21.50
2023-04-08T13:09:22.429Z,21.60
2023-04-08T13:11:49.254Z,21.50
2023-04-08T13:14:16.357Z,21.40
2023-04-08T13:16:43.022Z,21.40
2023-04-08T13:19:09.680Z,21.20
2023-04-08T13:21:36.276Z,21.10
2023-04-08T13:24:02.916Z,21.00
2023-04-08T13:26:29.542Z,20.70
2023-04-08T13:28:58.023Z,20.60
2023-04-08T13:31:25.866Z,20.40
2023-04-08T13:33:55.300Z,20.30
2023-04-08T13:36:23.771Z,20.10
2023-04-08T13:38:50.672Z,19.90
2023-04-08T13:41:17.553Z,19.80
2023-04-08T13:43:44.160Z,19.70
2023-04-08T13:46:11.258Z,19.30
2023-04-08T13:48:37.928Z,19.30
2023-04-08T13:51:05.389Z,19.20
2023-04-08T13:53:32.009Z,19.20
2023-04-08T13:55:59.161Z,19.20
2023-04-08T13:58:28.851Z,19.50
2023-04-08T14:00:56.357Z,19.60
2023-04-08T14:03:23.162Z,20.10
2023-04-08T14:05:51.054Z,20.00
2023-04-08T14:08:25.038Z,19.90
2023-04-08T14:10:52.384Z,19.90
2023-04-08T14:13:19.137Z,19.70
2023-04-08T14:15:46.829Z,19.50
2023-04-08T14:18:13.800Z,19.30
2023-04-08T14:20:41.284Z,19.00
2023-04-08T14:23:07.927Z,18.80
2023-04-08T14:25:34.544Z,18.70
2023-04-08T14:28:01.407Z,18.70
2023-04-08T14:30:28.793Z,18.20
2023-04-08T14:32:55.617Z,17.90
2023-04-08T14:35:22.879Z,17.70
2023-04-08T14:37:49.529Z,17.70
2023-04-08T14:40:16.442Z,17.70
2023-04-08T14:42:44.425Z,17.70
2023-04-08T14:45:11.324Z,17.70
2023-04-08T14:47:37.965Z,17.70
2023-04-08T14:50:05.030Z,17.70
2023-04-08T14:52:31.772Z,17.60
2023-04-08T14:54:58.462Z,17.50
2023-04-08T14:57:25.533Z,17.20
2023-04-08T14:59:52.474Z,17.00
2023-04-08T15:02:19.337Z,16.60
2023-04-08T15:04:46.125Z,16.40
2023-04-08T15:07:12.817Z,16.10
2023-04-08T15:09:39.459Z,16.00
2023-04-08T15:12:06.175Z,15.90
2023-04-08T15:14:32.879Z,15.80
2023-04-08T15:16:59.484Z,15.70
2023-04-08T15:19:26.300Z,15.50
2023-04-08T15:21:52.895Z,15.50
2023-04-08T15:24:19.512Z,15.40
2023-04-08T15:26:46.207Z,15.30
2023-04-08T15:29:13.073Z,15.30
2023-04-08T15:31:39.893Z,15.30
2023-04-08T15:34:06.811Z,15.30
2023-04-08T15:36:35.884Z,15.50
2023-04-08T15:39:03.551Z,15.70
2023-04-08T15:41:31.490Z,15.80
2023-04-08T15:43:58.478Z,16.00
2023-04-08T15:46:25.155Z,16.10
2023-04-08T15:48:52.102Z,16.10
2023-04-08T15:51:20.215Z,16.10
2023-04-08T15:53:47.143Z,16.00
2023-04-08T15:56:17.959Z,16.00
2023-04-08T15:58:46.008Z,15.90
2023-04-08T16:01:12.889Z,15.90
2023-04-08T16:03:39.639Z,16.00
2023-04-08T16:06:06.450Z,15.90
2023-04-08T16:08:34.679Z,15.70
2023-04-08T16:11:03.271Z,15.60
2023-04-08T16:13:30.209Z,15.50
2023-04-08T16:15:58.221Z,15.50
2023-04-08T16:18:25.222Z,15.50
2023-04-08T16:20:51.872Z,15.50
2023-04-08T16:23:18.515Z,15.40
2023-04-08T16:25:45.372Z,15.30
2023-04-08T16:28:12.367Z,15.30
2023-04-08T16:30:39.161Z,15.30
2023-04-08T16:33:06.156Z,15.30
2023-04-08T16:35:33.595Z,15.10
2023-04-08T16:38:00.223Z,15.10
2023-04-08T16:40:27.261Z,15.10
2023-04-08T16:42:54.234Z,15.90
2023-04-08T16:45:21.051Z,14.90
2023-04-08T16:47:47.784Z,14.90
2023-04-08T16:50:14.520Z,14.90
2023-04-08T16:52:42.587Z,14.70
2023-04-08T16:55:09.867Z,14.80
2023-04-08T16:57:36.504Z,14.70
2023-04-08T17:00:03.536Z,14.70
2023-04-08T17:02:31.289Z,14.60
2023-04-08T17:04:57.957Z,14.50
2023-04-08T17:07:24.565Z,14.50
2023-04-08T17:09:51.970Z,14.40
2023-04-08T17:12:18.653Z,14.40
2023-04-08T17:14:45.520Z,14.40
2023-04-08T17:17:12.410Z,14.30
2023-04-08T17:19:39.259Z,14.30
2023-04-08T17:22:06.050Z,14.20
2023-04-08T17:24:32.761Z,14.10
2023-04-08T17:27:00.064Z,14.00
2023-04-08T17:29:26.681Z,13.90
2023-04-08T17:31:53.357Z,13.90
2023-04-08T17:34:20.240Z,13.90
2023-04-08T17:36:46.935Z,13.80
2023-04-08T17:39:13.659Z,13.80
2023-04-08T17:41:42.038Z,13.70
2023-04-08T17:44:09.658Z,13.70
2023-04-08T17:46:36.736Z,13.60
2023-04-08T17:49:03.433Z,13.50
2023-04-08T17:51:30.941Z,13.40
2023-04-08T17:53:57.601Z,13.40
2023-04-08T17:56:24.623Z,13.40
2023-04-08T17:58:51.510Z,13.40
2023-04-08T18:01:18.351Z,13.40
2023-04-08T18:03:45.103Z,13.30
2023-04-08T18:06:11.811Z,13.30
2023-04-08T18:08:38.423Z,13.20
2023-04-08T18:11:06.043Z,13.20
2023-04-08T18:13:33.334Z,13.00
2023-04-08T18:16:00.143Z,13.00
2023-04-08T18:18:26.770Z,12.90
2023-04-08T18:20:53.447Z,12.90
2023-04-08T18:23:20.264Z,12.50
2023-04-08T18:25:47.578Z,12.80
2023-04-08T18:28:14.290Z,12.80
2023-04-08T18:30:42.593Z,12.70
2023-04-08T18:33:09.269Z,12.70
2023-04-08T18:35:35.987Z,12.60
2023-04-08T18:38:02.704Z,12.50
2023-04-08T18:40:29.656Z,12.50
2023-04-08T18:42:56.318Z,12.50
2023-04-08T18:45:22.952Z,12.40
2023-04-08T18:47:49.608Z,12.30
2023-04-08T18:50:16.585Z,12.30
2023-04-08T18:52:43.663Z,12.30
2023-04-08T18:55:10.350Z,12.30
2023-04-08T18:57:37.142Z,12.30
2023-04-08T19:00:04.311Z,12.20
2023-04-08T19:02:31.706Z,12.20
2023-04-08T19:04:58.534Z,12.20
2023-04-08T19:07:25.222Z,12.10
2023-04-08T19:09:58.943Z,12.10
2023-04-08T19:12:26.512Z,12.40
2023-04-08T19:14:53.905Z,12.10
2023-04-08T19:17:20.837Z,12.00
2023-04-08T19:19:47.658Z,12.00
2023-04-08T19:22:14.254Z,12.00
2023-04-08T19:24:40.867Z,12.00
2023-04-08T19:27:07.542Z,11.90
2023-04-08T19:29:34.534Z,11.80
2023-04-08T19:32:03.112Z,11.80
2023-04-08T19:34:30.107Z,11.80
2023-04-08T19:36:56.753Z,11.80
2023-04-08T19:39:25.973Z,11.70
2023-04-08T19:41:53.763Z,11.70
2023-04-08T19:44:20.395Z,11.70
2023-04-08T19:46:47.088Z,11.70
2023-04-08T19:49:13.775Z,11.60
2023-04-08T19:51:40.401Z,11.50
2023-04-08T19:54:07.025Z,11.50
2023-04-08T19:56:34.100Z,11.50
2023-04-08T19:59:01.879Z,11.40
2023-04-08T20:01:29.034Z,11.40
2023-04-08T20:03:55.981Z,11.30
2023-04-08T20:06:23.135Z,11.30
2023-04-08T20:08:52.272Z,11.20
2023-04-08T20:11:19.592Z,11.20
2023-04-08T20:13:47.097Z,11.10
2023-04-08T20:16:13.943Z,11.00
2023-04-08T20:18:40.867Z,10.90
2023-04-08T20:21:08.176Z,10.90
2023-04-08T20:23:34.939Z,10.80
2023-04-08T20:26:02.046Z,10.70
2023-04-08T20:28:29.219Z,10.70
2023-04-08T20:30:55.852Z,10.60
2023-04-08T20:33:22.591Z,10.60
2023-04-08T20:35:50.444Z,10.50
2023-04-08T20:38:17.223Z,10.40
2023-04-08T20:40:44.147Z,10.30
2023-04-08T20:43:11.116Z,10.30
2023-04-08T20:45:38.082Z,10.20
2023-04-08T20:48:05.703Z,10.10
2023-04-08T20:50:32.905Z,10.00
2023-04-08T20:52:59.728Z,10.00
2023-04-08T20:55:26.542Z,10.00
2023-04-08T20:57:53.155Z,9.90
2023-04-08T21:00:19.930Z,9.90
2023-04-08T21:02:47.601Z,9.90
2023-04-08T21:05:14.696Z,9.80
2023-04-08T21:07:44.417Z,9.70
2023-04-08T21:10:14.115Z,9.70
2023-04-08T21:12:40.773Z,9.60
2023-04-08T21:15:07.943Z,9.60
2023-04-08T21:17:34.634Z,9.50
2023-04-08T21:20:01.452Z,9.50
2023-04-08T21:22:28.748Z,9.40
2023-04-08T21:24:56.824Z,9.30
2023-04-08T21:27:23.521Z,9.30
2023-04-08T21:29:53.311Z,9.20
2023-04-08T21:32:20.067Z,9.20
2023-04-08T21:34:46.857Z,9.20
2023-04-08T21:37:13.590Z,9.20
2023-04-08T21:39:40.359Z,8.40
2023-04-08T21:42:06.994Z,9.10
2023-04-08T21:44:33.759Z,9.10
2023-04-08T21:47:02.020Z,9.10
2023-04-08T21:49:29.796Z,9.20
2023-04-08T21:51:56.443Z,9.20
2023-04-08T21:54:23.268Z,9.20
2023-04-08T21:56:49.910Z,9.20
2023-04-08T21:59:16.512Z,9.20
2023-04-08T22:01:43.307Z,9.20
2023-04-08T22:04:10.254Z,9.30
2023-04-08T22:06:36.921Z,9.30
2023-04-08T22:09:03.643Z,9.30
2023-04-08T22:11:30.729Z,9.30
2023-04-08T22:13:57.340Z,9.40
2023-04-08T22:16:24.089Z,9.30
2023-04-08T22:18:51.077Z,9.40
2023-04-08T22:21:17.895Z,9.40
2023-04-08T22:23:45.346Z,9.40
2023-04-08T22:26:12.733Z,9.40
2023-04-08T22:28:40.109Z,9.40
2023-04-08T22:31:10.908Z,9.40
2023-04-08T22:33:38.526Z,9.50
2023-04-08T22:36:05.839Z,9.50
2023-04-08T22:38:32.520Z,9.50
2023-04-08T22:40:59.187Z,9.50
2023-04-08T22:43:26.206Z,9.50
2023-04-08T22:45:52.897Z,9.50
2023-04-08T22:48:19.584Z,9.50
2023-04-08T22:50:46.212Z,9.50
2023-04-08T22:53:13.013Z,9.60
2023-04-08T22:55:39.677Z,9.60
2023-04-08T22:58:06.345Z,9.60
2023-04-08T23:00:32.981Z,9.60
2023-04-08T23:03:02.794Z,9.60
2023-04-08T23:05:29.450Z,9.70
2023-04-08T23:07:56.048Z,9.70
2023-04-08T23:10:22.659Z,9.70
2023-04-08T23:12:49.266Z,9.70
2023-04-08T23:15:15.891Z,9.70
2023-04-08T23:17:42.535Z,9.70
2023-04-08T23:20:09.673Z,9.70
2023-04-08T23:22:36.288Z,9.70
2023-04-08T23:25:03.597Z,9.70
2023-04-08T23:27:30.244Z,9.60
2023-04-08T23:29:56.899Z,9.70
2023-04-08T23:32:23.624Z,9.60
2023-04-08T23:34:50.241Z,9.60
2023-04-08T23:37:17.012Z,9.60
2023-04-08T23:39:43.624Z,9.60
2023-04-08T23:42:10.282Z,9.60
2023-04-08T23:44:36.920Z,9.60
2023-04-08T23:47:03.516Z,9.50
2023-04-08T23:49:30.287Z,9.50
2023-04-08T23:51:56.944Z,9.50
2023-04-08T23:54:23.592Z,9.40
2023-04-08T23:56:50.255Z,9.40
2023-04-08T23:59:17.038Z,9.40
